Time;durP1;ratioP1;P1;durP2;ratioP2;P2;SDS_P1;SDS_P2;PMS_P1;PMS_P2;Temp;Humidity;BMP_temperature;BMP_pressure;BME280_temperature;BME280_humidity;BME280_pressure;Samples;Min_cycle;Max_cycle;Signal;HPM_P1;HPM_P2
2021/08/10 00:02:42;;;;;;;;;;;13.90;99.90;;;;;;5079646;28;19929;-56
2021/08/10 00:05:32;;;;;;;;;;;13.80;99.90;;;;;;5074092;28;19924;-56
2021/08/10 00:08:21;;;;;;;;;;;13.80;99.90;;;;;;5078755;28;19924;-56
2021/08/10 00:11:10;;;;;;;;;;;13.70;99.90;;;;;;5077130;28;20372;-55
2021/08/10 00:13:58;;;;;;;;;;;13.70;99.90;;;;;;5070218;28;19935;-58
2021/08/10 00:16:47;;;;;;;;;;;13.80;99.90;;;;;;5073670;28;19924;-56
2021/08/10 00:19:36;;;;;;;;;;;13.70;99.90;;;;;;5075836;28;20007;-56
2021/08/10 00:22:28;;;;;;;;;;;13.70;99.90;;;;;;5102520;28;19924;-56
2021/08/10 00:25:16;;;;;;;;;;;13.60;99.90;;;;;;5102463;28;19924;-56
2021/08/10 00:28:05;;;;;;;;;;;13.50;99.90;;;;;;5101146;28;19964;-56
2021/08/10 00:30:53;;;;;;;;;;;13.50;99.90;;;;;;5080787;28;20051;-56
2021/08/10 00:33:45;;;;;;;;;;;13.40;99.90;;;;;;5078052;28;19924;-56
2021/08/10 00:36:34;;;;;;;;;;;13.40;99.90;;;;;;5085096;28;19930;-56
2021/08/10 00:39:24;;;;;;;;;;;13.30;99.90;;;;;;5080445;28;19984;-56
2021/08/10 00:42:12;;;;;;;;;;;13.30;99.90;;;;;;5085267;28;19924;-56
2021/08/10 00:45:01;;;;;;;;;;;13.30;99.90;;;;;;5089839;28;20006;-56
2021/08/10 00:47:56;;;;;;;;;;;13.20;99.90;;;;;;5097822;28;19930;-56
2021/08/10 00:50:48;;;;;;;;;;;13.20;99.90;;;;;;5091790;28;19909;-56
2021/08/10 00:53:37;;;;;;;;;;;13.20;99.90;;;;;;5100794;28;19938;-56
2021/08/10 00:56:27;;;;;;;;;;;13.20;99.90;;;;;;5087961;28;19932;-56
2021/08/10 00:59:16;;;;;;;;;;;13.20;99.90;;;;;;5083258;28;19956;-56
2021/08/10 01:02:34;;;;;;;;;;;13.20;99.90;;;;;;5087670;28;19908;-57
2021/08/10 01:05:27;;;;;;;;;;;13.10;99.90;;;;;;5089531;28;19955;-56
2021/08/10 01:08:21;;;;;;;;;;;13.00;99.90;;;;;;5084702;28;19928;-56
2021/08/10 01:11:11;;;;;;;;;;;13.00;99.90;;;;;;5123661;28;19947;-57
2021/08/10 01:14:06;;;;;;;;;;;13.00;99.90;;;;;;5118336;28;19969;-56
2021/08/10 01:17:01;;;;;;;;;;;12.90;99.90;;;;;;5119879;28;19946;-56
2021/08/10 01:20:03;;;;;;;;;;;12.90;99.90;;;;;;5089223;28;19924;-56
2021/08/10 01:22:56;;;;;;;;;;;12.90;99.90;;;;;;5082936;28;19924;-56
2021/08/10 01:25:56;;;;;;;;;;;12.80;99.90;;;;;;5105520;28;19928;-56
2021/08/10 01:28:52;;;;;;;;;;;12.80;99.90;;;;;;5076902;28;19958;-56
2021/08/10 01:31:47;;;;;;;;;;;12.80;99.90;;;;;;5099156;27;19928;-56
2021/08/10 01:34:37;;;;;;;;;;;12.80;99.90;;;;;;5093085;28;19924;-56
2021/08/10 01:37:32;;;;;;;;;;;12.80;99.90;;;;;;5094731;28;19969;-56
2021/08/10 01:40:24;;;;;;;;;;;12.70;99.90;;;;;;5078215;28;20066;-56
2021/08/10 01:43:14;;;;;;;;;;;12.70;99.90;;;;;;5096081;28;19931;-58
2021/08/10 01:46:05;;;;;;;;;;;12.70;99.90;;;;;;5104443;27;20022;-57
2021/08/10 01:48:58;;;;;;;;;;;12.70;99.90;;;;;;5080459;28;19931;-57
2021/08/10 01:51:50;;;;;;;;;;;12.70;99.90;;;;;;5087301;28;19983;-57
2021/08/10 01:54:41;;;;;;;;;;;12.60;99.90;;;;;;5073594;28;19929;-60
2021/08/10 01:57:31;;;;;;;;;;;12.60;99.90;;;;;;5091543;28;19928;-57
2021/08/10 02:00:19;;;;;;;;;;;12.70;99.90;;;;;;5080240;28;19925;-57
2021/08/10 02:03:17;;;;;;;;;;;12.70;99.90;;;;;;5073729;28;19925;-57
2021/08/10 02:06:15;;;;;;;;;;;12.70;99.90;;;;;;5059542;28;20389;-58
2021/08/10 02:09:07;;;;;;;;;;;12.60;99.90;;;;;;5046312;28;20067;-57
2021/08/10 02:11:57;;;;;;;;;;;12.50;99.90;;;;;;5052711;28;19925;-58
2021/08/10 02:14:51;;;;;;;;;;;12.50;99.90;;;;;;5076729;28;20042;-56
2021/08/10 02:17:49;;;;;;;;;;;12.50;99.90;;;;;;5066155;28;20301;-57
2021/08/10 02:20:48;;;;;;;;;;;12.50;99.90;;;;;;5068369;28;20266;-57
2021/08/10 02:23:40;;;;;;;;;;;12.50;99.90;;;;;;5089577;28;19929;-57
2021/08/10 02:26:30;;;;;;;;;;;12.40;99.90;;;;;;5075342;28;19931;-57
2021/08/10 02:29:45;;;;;;;;;;;12.40;99.90;;;;;;5044135;28;20309;-57
2021/08/10 02:32:37;;;;;;;;;;;12.40;99.90;;;;;;5079775;28;19924;-58
2021/08/10 02:35:29;;;;;;;;;;;12.40;99.90;;;;;;5055251;28;19990;-57
2021/08/10 02:38:19;;;;;;;;;;;12.40;99.90;;;;;;5067761;28;20386;-57
2021/08/10 02:41:13;;;;;;;;;;;12.40;99.90;;;;;;5050617;28;20002;-57
2021/08/10 02:44:23;;;;;;;;;;;12.40;99.90;;;;;;5081608;28;19990;-57
2021/08/10 02:47:14;;;;;;;;;;;12.40;99.90;;;;;;5054106;28;19928;-57
2021/08/10 02:50:05;;;;;;;;;;;12.50;99.90;;;;;;5079224;28;19925;-57
2021/08/10 02:52:54;;;;;;;;;;;12.50;99.90;;;;;;5068254;28;19935;-57
2021/08/10 02:55:47;;;;;;;;;;;12.50;99.90;;;;;;5076907;28;19924;-57
2021/08/10 02:58:42;;;;;;;;;;;12.50;99.90;;;;;;5051148;28;19925;-57
2021/08/10 03:01:33;;;;;;;;;;;12.50;99.90;;;;;;5062370;28;19924;-57
2021/08/10 03:04:23;;;;;;;;;;;12.50;99.90;;;;;;5087935;28;20055;-58
2021/08/10 03:07:13;;;;;;;;;;;12.50;99.90;;;;;;5071752;28;19959;-57
2021/08/10 03:10:04;;;;;;;;;;;12.40;99.90;;;;;;5064116;28;19971;-56
2021/08/10 03:12:53;;;;;;;;;;;12.30;99.90;;;;;;5081248;28;19928;-57
2021/08/10 03:15:47;;;;;;;;;;;12.40;99.90;;;;;;5090197;28;19928;-56
2021/08/10 03:18:36;;;;;;;;;;;12.40;99.90;;;;;;5083068;28;19931;-57
2021/08/10 03:21:29;;;;;;;;;;;12.30;99.90;;;;;;5072392;28;19967;-57
2021/08/10 03:24:18;;;;;;;;;;;12.40;99.90;;;;;;5066980;28;19929;-57
2021/08/10 03:27:08;;;;;;;;;;;12.40;99.90;;;;;;5097059;28;19924;-57
2021/08/10 03:30:02;;;;;;;;;;;12.40;99.90;;;;;;5097959;28;19924;-57
2021/08/10 03:32:54;;;;;;;;;;;12.40;99.90;;;;;;5082312;28;19932;-57
2021/08/10 03:35:45;;;;;;;;;;;12.40;99.90;;;;;;5063347;28;19970;-57
2021/08/10 03:38:34;;;;;;;;;;;12.40;99.90;;;;;;5077903;28;19925;-57
2021/08/10 03:41:23;;;;;;;;;;;12.40;99.90;;;;;;5071410;28;19976;-58
2021/08/10 03:44:15;;;;;;;;;;;12.40;99.90;;;;;;5070022;28;19932;-57
2021/08/10 03:47:04;;;;;;;;;;;12.40;99.90;;;;;;5084616;28;19924;-58
2021/08/10 03:49:55;;;;;;;;;;;12.40;99.90;;;;;;5075050;28;19981;-58
2021/08/10 03:52:44;;;;;;;;;;;12.50;99.90;;;;;;5079828;28;19956;-57
2021/08/10 03:55:34;;;;;;;;;;;12.50;99.90;;;;;;5102760;27;20379;-57
2021/08/10 03:58:26;;;;;;;;;;;12.60;99.90;;;;;;5098062;28;19928;-58
2021/08/10 04:01:15;;;;;;;;;;;12.60;99.90;;;;;;5092695;27;19925;-56
2021/08/10 04:04:09;;;;;;;;;;;12.60;99.90;;;;;;5069507;28;19931;-57
2021/08/10 04:07:02;;;;;;;;;;;12.60;99.90;;;;;;5078799;28;19931;-57
2021/08/10 04:09:52;;;;;;;;;;;12.60;99.90;;;;;;5099197;28;19932;-57
2021/08/10 04:12:44;;;;;;;;;;;12.70;99.90;;;;;;5092206;28;19924;-57
2021/08/10 04:15:33;;;;;;;;;;;12.60;99.90;;;;;;5076565;28;20296;-57
2021/08/10 04:18:23;;;;;;;;;;;12.60;99.90;;;;;;5070483;28;19935;-56
2021/08/10 04:21:11;;;;;;;;;;;12.50;99.90;;;;;;5066549;28;19931;-57
2021/08/10 04:24:05;;;;;;;;;;;12.50;99.90;;;;;;5069211;28;20273;-56
2021/08/10 04:26:54;;;;;;;;;;;12.50;99.90;;;;;;5070353;28;19967;-57
2021/08/10 04:29:44;;;;;;;;;;;12.50;99.90;;;;;;5060449;28;20356;-56
2021/08/10 04:32:32;;;;;;;;;;;12.60;99.90;;;;;;5075274;28;19928;-57
2021/08/10 04:35:24;;;;;;;;;;;12.60;99.90;;;;;;5068729;28;20407;-57
2021/08/10 04:38:12;;;;;;;;;;;12.60;99.90;;;;;;5091142;28;20002;-57
2021/08/10 04:41:04;;;;;;;;;;;12.70;99.90;;;;;;5063378;28;19928;-56
2021/08/10 04:44:12;;;;;;;;;;;12.80;99.90;;;;;;5089212;28;19975;-57
2021/08/10 04:47:03;;;;;;;;;;;12.90;99.90;;;;;;5095673;27;19925;-57
2021/08/10 04:49:55;;;;;;;;;;;12.90;99.90;;;;;;5075807;28;20011;-57
2021/08/10 04:52:44;;;;;;;;;;;12.90;99.90;;;;;;5074633;28;20670;-57
2021/08/10 04:55:33;;;;;;;;;;;13.10;99.90;;;;;;5076049;28;19924;-59
2021/08/10 04:58:23;;;;;;;;;;;13.10;99.90;;;;;;5070912;28;19924;-60
2021/08/10 05:01:11;;;;;;;;;;;13.20;99.90;;;;;;5079250;28;19924;-56
2021/08/10 05:04:05;;;;;;;;;;;13.30;99.90;;;;;;5062666;28;19929;-57
2021/08/10 05:06:54;;;;;;;;;;;13.30;99.90;;;;;;5073302;28;20416;-56
2021/08/10 05:10:07;;;;;;;;;;;13.40;99.90;;;;;;5072559;28;19931;-57
2021/08/10 05:12:56;;;;;;;;;;;13.40;99.90;;;;;;5074216;28;19928;-57
2021/08/10 05:15:49;;;;;;;;;;;13.60;99.90;;;;;;5070714;28;19924;-57
2021/08/10 05:18:39;;;;;;;;;;;13.80;99.90;;;;;;5085244;28;20372;-57
2021/08/10 05:21:28;;;;;;;;;;;13.90;99.90;;;;;;5090661;28;19924;-57
2021/08/10 05:24:18;;;;;;;;;;;14.10;99.90;;;;;;5075847;28;19978;-57
2021/08/10 05:27:08;;;;;;;;;;;14.30;99.90;;;;;;5079366;28;20019;-57
2021/08/10 05:29:58;;;;;;;;;;;14.40;99.90;;;;;;5065503;28;19934;-56
2021/08/10 05:32:49;;;;;;;;;;;14.50;99.90;;;;;;5051021;28;20007;-57
2021/08/10 05:35:49;;;;;;;;;;;14.70;99.90;;;;;;5055407;28;19932;-57
2021/08/10 05:38:37;;;;;;;;;;;14.80;99.90;;;;;;5072101;28;19928;-57
2021/08/10 05:41:26;;;;;;;;;;;14.90;99.90;;;;;;5072371;28;20365;-57
2021/08/10 05:44:16;;;;;;;;;;;15.10;99.90;;;;;;5069692;28;19935;-57
2021/08/10 05:47:07;;;;;;;;;;;15.30;99.90;;;;;;5074433;28;19924;-57
2021/08/10 05:50:00;;;;;;;;;;;15.30;99.90;;;;;;5082190;28;19932;-57
2021/08/10 05:52:53;;;;;;;;;;;15.20;99.90;;;;;;5062198;28;19925;-57
2021/08/10 05:55:45;;;;;;;;;;;15.30;99.90;;;;;;5066600;28;20062;-57
2021/08/10 05:58:33;;;;;;;;;;;15.60;99.90;;;;;;5061657;28;19924;-57
2021/08/10 06:01:24;;;;;;;;;;;16.00;99.90;;;;;;5059034;28;19924;-57
2021/08/10 06:04:15;;;;;;;;;;;16.50;99.90;;;;;;5063778;28;19925;-57
2021/08/10 06:07:08;;;;;;;;;;;17.00;99.90;;;;;;5037503;28;19935;-57
2021/08/10 06:10:00;;;;;;;;;;;17.00;99.90;;;;;;5047107;28;19981;-57
2021/08/10 06:12:50;;;;;;;;;;;17.30;99.90;;;;;;5046207;28;19924;-57
2021/08/10 06:15:40;;;;;;;;;;;17.40;99.90;;;;;;5038993;28;20376;-57
2021/08/10 06:18:29;;;;;;;;;;;17.30;99.90;;;;;;5059442;28;19928;-58
2021/08/10 06:21:23;;;;;;;;;;;17.40;99.90;;;;;;5062604;28;20410;-57
2021/08/10 06:24:13;;;;;;;;;;;18.00;99.90;;;;;;5061580;28;19931;-57
2021/08/10 06:27:04;;;;;;;;;;;18.50;99.90;;;;;;5040217;28;19924;-59
2021/08/10 06:29:54;;;;;;;;;;;19.00;99.90;;;;;;5041284;28;19924;-57
2021/08/10 06:32:43;;;;;;;;;;;19.60;99.90;;;;;;5054978;28;19931;-57
2021/08/10 06:35:39;;;;;;;;;;;20.90;99.90;;;;;;5057453;28;19924;-57
2021/08/10 06:38:27;;;;;;;;;;;21.90;99.90;;;;;;5053954;28;19931;-57
2021/08/10 06:41:17;;;;;;;;;;;20.80;99.90;;;;;;5047202;28;19935;-57
2021/08/10 06:44:20;;;;;;;;;;;18.90;99.90;;;;;;5068920;28;19924;-55
2021/08/10 06:47:15;;;;;;;;;;;18.70;99.90;;;;;;5047273;28;19925;-55
2021/08/10 06:50:04;;;;;;;;;;;18.80;99.90;;;;;;5046627;28;19931;-56
2021/08/10 06:52:53;;;;;;;;;;;18.90;99.90;;;;;;5072074;28;20041;-56
2021/08/10 06:55:43;;;;;;;;;;;20.40;99.90;;;;;;5057384;28;19936;-56
2021/08/10 06:58:32;;;;;;;;;;;21.10;99.90;;;;;;5062613;28;19932;-56
2021/08/10 07:01:41;;;;;;;;;;;20.00;99.90;;;;;;5061998;28;19931;-56
2021/08/10 07:04:36;;;;;;;;;;;19.00;99.90;;;;;;5059349;28;20428;-55
2021/08/10 07:07:25;;;;;;;;;;;18.40;99.90;;;;;;5079450;28;19931;-56
2021/08/10 07:10:15;;;;;;;;;;;18.10;99.90;;;;;;5053301;28;20003;-56
2021/08/10 07:13:09;;;;;;;;;;;18.00;99.90;;;;;;5069773;28;19928;-56
2021/08/10 07:16:00;;;;;;;;;;;18.20;99.90;;;;;;5071087;28;19925;-56
2021/08/10 07:18:51;;;;;;;;;;;18.50;99.90;;;;;;5073093;28;19932;-56
2021/08/10 07:21:42;;;;;;;;;;;18.90;99.90;;;;;;5069982;28;20285;-56
2021/08/10 07:24:41;;;;;;;;;;;18.90;99.90;;;;;;5069812;28;19924;-56
2021/08/10 07:27:30;;;;;;;;;;;18.30;99.90;;;;;;5026406;28;19971;-55
2021/08/10 07:30:19;;;;;;;;;;;19.00;99.90;;;;;;5061701;28;19940;-56
2021/08/10 07:33:10;;;;;;;;;;;21.90;99.90;;;;;;5057979;28;19925;-56
2021/08/10 07:36:00;;;;;;;;;;;23.00;99.90;;;;;;5050556;28;19932;-56
2021/08/10 07:38:50;;;;;;;;;;;23.40;99.90;;;;;;5051820;28;19933;-56
2021/08/10 07:41:38;;;;;;;;;;;23.70;99.10;;;;;;5047188;28;19960;-57
2021/08/10 07:44:29;;;;;;;;;;;22.40;99.90;;;;;;5051442;28;19931;-57
2021/08/10 07:47:18;;;;;;;;;;;21.40;99.90;;;;;;5059352;28;19925;-56
2021/08/10 07:50:11;;;;;;;;;;;20.90;99.90;;;;;;5032232;28;19952;-56
2021/08/10 07:53:00;;;;;;;;;;;23.20;99.90;;;;;;5047441;28;19976;-56
2021/08/10 07:55:49;;;;;;;;;;;24.90;97.60;;;;;;5042236;28;19925;-55
2021/08/10 07:58:38;;;;;;;;;;;25.40;96.50;;;;;;5044609;28;20042;-56
2021/08/10 08:01:26;;;;;;;;;;;24.50;97.30;;;;;;5053288;28;19925;-56
2021/08/10 08:04:16;;;;;;;;;;;25.00;97.50;;;;;;5047810;28;20300;-56
2021/08/10 08:07:06;;;;;;;;;;;25.20;96.80;;;;;;5055558;28;19925;-56
2021/08/10 08:09:54;;;;;;;;;;;25.80;96.20;;;;;;5047097;28;19933;-57
2021/08/10 08:12:43;;;;;;;;;;;27.10;93.60;;;;;;5065502;28;19935;-56
2021/08/10 08:15:34;;;;;;;;;;;28.20;91.60;;;;;;5058928;28;19932;-56
2021/08/10 08:18:27;;;;;;;;;;;30.40;83.80;;;;;;5044781;28;19939;-57
2021/08/10 08:21:16;;;;;;;;;;;30.70;80.50;;;;;;5082210;28;19940;-56
2021/08/10 08:24:10;;;;;;;;;;;29.00;79.90;;;;;;5049550;28;19925;-56
2021/08/10 08:26:59;;;;;;;;;;;27.70;86.60;;;;;;5058205;28;19928;-57
2021/08/10 08:29:47;;;;;;;;;;;29.40;84.00;;;;;;5067798;28;19925;-56
2021/08/10 08:32:36;;;;;;;;;;;31.10;77.40;;;;;;5043834;28;19968;-56
2021/08/10 08:35:26;;;;;;;;;;;27.20;86.20;;;;;;5077545;28;19996;-57
2021/08/10 08:38:16;;;;;;;;;;;25.90;90.70;;;;;;5051226;28;19924;-57
2021/08/10 08:41:06;;;;;;;;;;;27.00;90.70;;;;;;5056242;28;19924;-57
2021/08/10 08:43:55;;;;;;;;;;;28.10;87.40;;;;;;5073695;28;20297;-57
2021/08/10 08:46:45;;;;;;;;;;;29.60;84.90;;;;;;5069593;28;19924;-56
2021/08/10 08:49:35;;;;;;;;;;;32.50;75.40;;;;;;5066634;28;19931;-56
2021/08/10 08:52:24;;;;;;;;;;;30.80;71.80;;;;;;5045234;28;19951;-56
2021/08/10 08:55:15;;;;;;;;;;;29.90;77.90;;;;;;5062895;28;19925;-56
2021/08/10 08:58:05;;;;;;;;;;;28.10;80.20;;;;;;5055459;28;19925;-57
2021/08/10 09:00:53;;;;;;;;;;;29.40;81.90;;;;;;5053104;28;20015;-56
2021/08/10 09:03:43;;;;;;;;;;;32.60;69.90;;;;;;5085894;28;19931;-56
2021/08/10 09:06:33;;;;;;;;;;;35.40;59.80;;;;;;5105434;28;19932;-56
2021/08/10 09:09:23;;;;;;;;;;;36.10;56.80;;;;;;5085695;28;19935;-56
2021/08/10 09:12:18;;;;;;;;;;;35.40;55.30;;;;;;5095227;28;20094;-57
2021/08/10 09:15:28;;;;;;;;;;;33.70;54.20;;;;;;5072490;28;19925;-56
2021/08/10 09:18:20;;;;;;;;;;;33.10;56.20;;;;;;5093066;28;19931;-57
2021/08/10 09:21:19;;;;;;;;;;;36.10;51.50;;;;;;5073549;28;19936;-56
2021/08/10 09:24:16;;;;;;;;;;;36.60;47.80;;;;;;5072868;28;20276;-57
2021/08/10 09:27:05;;;;;;;;;;;33.50;49.20;;;;;;5059550;28;19931;-58
2021/08/10 09:29:54;;;;;;;;;;;34.90;50.90;;;;;;5070122;28;19951;-57
2021/08/10 09:32:58;;;;;;;;;;;32.70;54.00;;;;;;5073226;28;19970;-57
2021/08/10 09:35:51;;;;;;;;;;;30.90;59.10;;;;;;5095157;28;20013;-58
2021/08/10 09:38:46;;;;;;;;;;;30.40;60.70;;;;;;5102785;28;19924;-57
2021/08/10 09:41:37;;;;;;;;;;;28.80;64.60;;;;;;5067884;28;20373;-56
2021/08/10 09:44:25;;;;;;;;;;;28.90;66.70;;;;;;5074507;28;20023;-57
2021/08/10 09:47:32;;;;;;;;;;;28.70;67.60;;;;;;5086483;28;19946;-56
2021/08/10 09:50:26;;;;;;;;;;;28.30;67.70;;;;;;5070561;28;19971;-56
2021/08/10 09:53:15;;;;;;;;;;;27.50;71.10;;;;;;5093805;28;19955;-57
2021/08/10 09:56:04;;;;;;;;;;;27.30;72.80;;;;;;5096822;28;20023;-56
2021/08/10 09:58:57;;;;;;;;;;;27.70;72.50;;;;;;5072666;28;19935;-57
2021/08/10 10:01:48;;;;;;;;;;;28.10;72.60;;;;;;5064643;28;19925;-56
2021/08/10 10:04:37;;;;;;;;;;;27.10;68.30;;;;;;5102673;28;19950;-56
2021/08/10 10:07:31;;;;;;;;;;;26.20;70.90;;;;;;5078418;28;19924;-56
2021/08/10 10:10:27;;;;;;;;;;;25.90;73.00;;;;;;5092154;28;19977;-56
2021/08/10 10:13:17;;;;;;;;;;;26.10;74.70;;;;;;5107783;27;19924;-55
2021/08/10 10:16:08;;;;;;;;;;;25.90;74.80;;;;;;5085368;28;19930;-58
2021/08/10 10:18:57;;;;;;;;;;;25.70;75.20;;;;;;5077910;28;19928;-57
2021/08/10 10:21:47;;;;;;;;;;;25.00;74.30;;;;;;5092918;28;19924;-57
2021/08/10 10:24:39;;;;;;;;;;;24.70;76.10;;;;;;5083869;28;19931;-56
2021/08/10 10:27:29;;;;;;;;;;;25.00;75.90;;;;;;5073235;28;19964;-60
2021/08/10 10:30:18;;;;;;;;;;;24.90;75.20;;;;;;5065466;28;19938;-56
2021/08/10 10:33:09;;;;;;;;;;;24.90;76.20;;;;;;5085183;28;19924;-57
2021/08/10 10:35:58;;;;;;;;;;;25.30;77.30;;;;;;5097091;28;19932;-56
2021/08/10 10:38:47;;;;;;;;;;;25.20;78.40;;;;;;5105263;28;20444;-56
2021/08/10 10:41:37;;;;;;;;;;;25.20;77.00;;;;;;5089623;28;19928;-56
2021/08/10 10:44:38;;;;;;;;;;;25.20;77.40;;;;;;5087583;28;19924;-56
2021/08/10 10:47:34;;;;;;;;;;;25.40;78.20;;;;;;5087517;28;19928;-56
2021/08/10 10:50:23;;;;;;;;;;;25.30;79.00;;;;;;5094219;28;19924;-56
2021/08/10 10:53:21;;;;;;;;;;;25.60;79.90;;;;;;5084878;28;20360;-56
2021/08/10 10:56:28;;;;;;;;;;;25.60;79.70;;;;;;5082161;28;19932;-56
2021/08/10 10:59:31;;;;;;;;;;;26.00;79.50;;;;;;5080568;28;20390;-56
2021/08/10 11:02:25;;;;;;;;;;;28.70;70.30;;;;;;5066901;28;19939;-56
2021/08/10 11:05:26;;;;;;;;;;;31.40;63.80;;;;;;5069878;28;19924;-57
2021/08/10 11:08:30;;;;;;;;;;;29.60;65.70;;;;;;5082126;28;20396;-57
2021/08/10 11:11:33;;;;;;;;;;;28.10;71.50;;;;;;5086102;28;19962;-56
2021/08/10 11:14:41;;;;;;;;;;;26.50;74.80;;;;;;5088878;28;19924;-56
2021/08/10 11:17:33;;;;;;;;;;;25.80;78.20;;;;;;5077153;28;19924;-55
2021/08/10 11:20:23;;;;;;;;;;;25.90;79.30;;;;;;5085043;28;19924;-55
2021/08/10 11:23:32;;;;;;;;;;;26.50;77.50;;;;;;5085809;28;19924;-55
2021/08/10 11:26:39;;;;;;;;;;;26.20;77.80;;;;;;5071647;28;19924;-57
2021/08/10 11:29:40;;;;;;;;;;;26.20;79.00;;;;;;5086959;28;19932;-56
2021/08/10 11:32:47;;;;;;;;;;;25.90;79.20;;;;;;5090389;28;19928;-57
2021/08/10 11:35:39;;;;;;;;;;;25.70;79.10;;;;;;5096042;28;19931;-56
2021/08/10 11:38:27;;;;;;;;;;;25.70;81.00;;;;;;5085435;28;19966;-56
2021/08/10 11:41:16;;;;;;;;;;;25.40;80.40;;;;;;5090069;28;19967;-56
2021/08/10 11:44:06;;;;;;;;;;;25.40;81.30;;;;;;5099834;28;19924;-56
2021/08/10 11:50:08;;;;;;;;;;;25.10;84.80;;;;;;5090014;28;20010;-56
2021/08/10 11:52:58;;;;;;;;;;;25.20;86.80;;;;;;5080879;28;19941;-56
2021/08/10 11:55:47;;;;;;;;;;;25.50;87.30;;;;;;5093995;28;19924;-56
2021/08/10 11:58:42;;;;;;;;;;;25.70;86.80;;;;;;5092456;28;19930;-56
2021/08/10 12:01:32;;;;;;;;;;;25.90;86.30;;;;;;5082837;28;19926;-58
2021/08/10 12:04:21;;;;;;;;;;;25.80;86.00;;;;;;5092681;28;19936;-56
2021/08/10 12:07:12;;;;;;;;;;;25.80;85.90;;;;;;5091731;28;19924;-57
2021/08/10 12:10:03;;;;;;;;;;;25.70;87.00;;;;;;5106710;28;20380;-56
2021/08/10 12:12:52;;;;;;;;;;;26.10;86.50;;;;;;5093490;28;19927;-57
2021/08/10 12:15:44;;;;;;;;;;;25.60;84.60;;;;;;5098119;28;19928;-57
2021/08/10 12:18:33;;;;;;;;;;;25.10;85.70;;;;;;5103280;28;19954;-56
2021/08/10 12:21:22;;;;;;;;;;;25.00;86.40;;;;;;5104011;28;19983;-57
2021/08/10 12:24:24;;;;;;;;;;;25.40;87.10;;;;;;5109478;28;20013;-56
2021/08/10 12:27:15;;;;;;;;;;;25.60;85.00;;;;;;5092755;28;19935;-57
2021/08/10 12:30:04;;;;;;;;;;;25.50;85.40;;;;;;5070746;28;19974;-56
2021/08/10 12:32:53;;;;;;;;;;;25.60;83.70;;;;;;5073724;28;19991;-56
2021/08/10 12:35:55;;;;;;;;;;;25.00;83.20;;;;;;5080267;28;20330;-56
2021/08/10 12:38:45;;;;;;;;;;;25.30;86.80;;;;;;5089863;28;20024;-56
2021/08/10 12:41:52;;;;;;;;;;;25.40;87.20;;;;;;5076888;28;19924;-56
2021/08/10 12:44:42;;;;;;;;;;;25.30;87.90;;;;;;5090943;28;20425;-56
2021/08/10 12:47:32;;;;;;;;;;;25.40;88.10;;;;;;5089363;28;20133;-56
2021/08/10 12:50:24;;;;;;;;;;;25.80;87.30;;;;;;5085034;28;19928;-56
2021/08/10 12:53:25;;;;;;;;;;;25.90;86.50;;;;;;5084375;28;19924;-57
2021/08/10 12:56:13;;;;;;;;;;;25.80;84.40;;;;;;5083623;28;19924;-56
2021/08/10 12:59:01;;;;;;;;;;;25.80;85.60;;;;;;5079392;28;20400;-56
2021/08/10 13:01:51;;;;;;;;;;;25.80;86.50;;;;;;5079291;28;20407;-57
2021/08/10 13:04:55;;;;;;;;;;;25.90;86.10;;;;;;5076220;28;20356;-56
2021/08/10 13:07:44;;;;;;;;;;;25.90;85.60;;;;;;5088400;28;19989;-57
2021/08/10 13:10:58;;;;;;;;;;;26.10;85.80;;;;;;5087872;28;19963;-57
2021/08/10 13:13:48;;;;;;;;;;;25.70;86.30;;;;;;5075447;28;19925;-56
2021/08/10 13:16:37;;;;;;;;;;;25.40;87.30;;;;;;5081264;28;20374;-57
2021/08/10 13:19:28;;;;;;;;;;;25.60;86.00;;;;;;5080743;28;19928;-57
2021/08/10 13:22:36;;;;;;;;;;;25.50;85.90;;;;;;5085806;28;19924;-57
2021/08/10 13:25:25;;;;;;;;;;;25.70;86.30;;;;;;5089842;28;20323;-57
2021/08/10 13:28:14;;;;;;;;;;;25.90;86.40;;;;;;5070215;28;19924;-56
2021/08/10 13:31:16;;;;;;;;;;;26.20;86.50;;;;;;5081361;28;20410;-57
2021/08/10 13:34:06;;;;;;;;;;;26.40;83.20;;;;;;5090532;28;19924;-56
2021/08/10 13:36:55;;;;;;;;;;;26.60;84.10;;;;;;5086267;28;20057;-57
2021/08/10 13:39:44;;;;;;;;;;;26.60;84.40;;;;;;5092310;28;20376;-57
2021/08/10 13:42:32;;;;;;;;;;;26.70;82.50;;;;;;5095023;28;19924;-56
2021/08/10 13:45:24;;;;;;;;;;;26.50;82.50;;;;;;5082230;28;19936;-55
2021/08/10 13:48:12;;;;;;;;;;;26.30;81.50;;;;;;5079309;28;19939;-56
2021/08/10 13:51:01;;;;;;;;;;;26.20;83.10;;;;;;5085555;28;19967;-56
2021/08/10 13:53:52;;;;;;;;;;;26.20;83.00;;;;;;5090791;28;19928;-57
2021/08/10 13:56:40;;;;;;;;;;;26.40;83.30;;;;;;5089620;28;19937;-56
2021/08/10 13:59:28;;;;;;;;;;;26.30;82.80;;;;;;5092205;28;19994;-56
2021/08/10 14:02:23;;;;;;;;;;;26.00;82.80;;;;;;5074149;28;19924;-56
2021/08/10 14:05:12;;;;;;;;;;;26.10;83.40;;;;;;5088603;28;19935;-57
2021/08/10 14:08:01;;;;;;;;;;;26.00;83.70;;;;;;5096317;28;19963;-57
2021/08/10 14:10:51;;;;;;;;;;;26.10;82.50;;;;;;5088359;28;20300;-57
2021/08/10 14:13:40;;;;;;;;;;;26.00;81.60;;;;;;5071285;28;19925;-56
2021/08/10 14:16:29;;;;;;;;;;;26.00;80.70;;;;;;5070905;28;19928;-56
2021/08/10 14:19:17;;;;;;;;;;;25.70;79.40;;;;;;5074578;28;20299;-56
2021/08/10 14:22:06;;;;;;;;;;;25.60;81.90;;;;;;5082304;28;20029;-56
2021/08/10 14:24:54;;;;;;;;;;;25.80;83.30;;;;;;5074374;28;19928;-56
2021/08/10 14:27:44;;;;;;;;;;;26.00;82.90;;;;;;5076357;28;19928;-58
2021/08/10 14:30:33;;;;;;;;;;;25.80;82.30;;;;;;5067301;28;19988;-56
2021/08/10 14:33:24;;;;;;;;;;;25.60;83.00;;;;;;5077151;28;20382;-56
2021/08/10 14:36:13;;;;;;;;;;;25.70;82.40;;;;;;5088393;28;20310;-56
2021/08/10 14:39:03;;;;;;;;;;;25.40;81.20;;;;;;5074922;28;19931;-56
2021/08/10 14:41:52;;;;;;;;;;;25.30;81.50;;;;;;5077547;28;19925;-56
2021/08/10 14:44:42;;;;;;;;;;;25.50;80.80;;;;;;5066251;28;20336;-56
2021/08/10 14:47:32;;;;;;;;;;;25.70;81.80;;;;;;5069932;28;19924;-56
2021/08/10 14:50:21;;;;;;;;;;;25.80;83.30;;;;;;5074634;28;20268;-56
2021/08/10 14:53:10;;;;;;;;;;;25.80;81.70;;;;;;5082029;28;20380;-56
2021/08/10 14:55:58;;;;;;;;;;;25.70;82.00;;;;;;5074734;28;19924;-57
2021/08/10 14:58:46;;;;;;;;;;;26.10;81.90;;;;;;5077703;28;20280;-57
2021/08/10 15:01:36;;;;;;;;;;;26.20;81.00;;;;;;5086299;28;20013;-58
2021/08/10 15:04:25;;;;;;;;;;;26.20;82.40;;;;;;5077348;28;20010;-58
2021/08/10 15:07:13;;;;;;;;;;;25.90;80.20;;;;;;5074880;28;19932;-57
2021/08/10 15:10:03;;;;;;;;;;;25.60;81.00;;;;;;5076661;28;20269;-57
2021/08/10 15:12:52;;;;;;;;;;;25.40;81.90;;;;;;5074283;28;19924;-57
2021/08/10 15:15:42;;;;;;;;;;;26.00;83.20;;;;;;5072552;28;19931;-57
2021/08/10 15:18:33;;;;;;;;;;;26.20;80.80;;;;;;5061310;28;19932;-57
2021/08/10 15:21:21;;;;;;;;;;;26.00;80.00;;;;;;5084380;28;19925;-58
2021/08/10 15:24:09;;;;;;;;;;;26.00;80.70;;;;;;5069344;28;20331;-58
2021/08/10 15:26:58;;;;;;;;;;;25.60;82.30;;;;;;5080237;28;19928;-57
2021/08/10 15:29:46;;;;;;;;;;;25.80;83.10;;;;;;5080405;28;19935;-58
2021/08/10 15:32:35;;;;;;;;;;;25.60;82.90;;;;;;5072553;28;19935;-60
2021/08/10 15:35:25;;;;;;;;;;;25.50;82.00;;;;;;5088079;28;20014;-58
2021/08/10 15:38:13;;;;;;;;;;;25.60;82.80;;;;;;5080100;28;19924;-57
2021/08/10 15:41:02;;;;;;;;;;;26.00;82.10;;;;;;5081947;28;20623;-57
2021/08/10 15:43:51;;;;;;;;;;;26.20;81.60;;;;;;5078725;28;20387;-55
2021/08/10 15:46:41;;;;;;;;;;;25.70;81.70;;;;;;5068171;28;19929;-56
2021/08/10 15:49:30;;;;;;;;;;;25.60;82.90;;;;;;5076670;28;19924;-58
2021/08/10 15:52:20;;;;;;;;;;;25.60;82.90;;;;;;5080926;28;20018;-59
2021/08/10 15:55:09;;;;;;;;;;;25.40;82.70;;;;;;5088207;28;19931;-56
2021/08/10 15:57:57;;;;;;;;;;;25.10;84.40;;;;;;5085940;28;19967;-57
2021/08/10 16:00:46;;;;;;;;;;;25.00;85.00;;;;;;5076187;28;20250;-56
2021/08/10 16:03:34;;;;;;;;;;;25.00;84.30;;;;;;5070848;28;19928;-56
2021/08/10 16:06:24;;;;;;;;;;;24.90;84.20;;;;;;5081278;28;19931;-56
2021/08/10 16:09:14;;;;;;;;;;;24.80;85.00;;;;;;5070240;28;19933;-55
2021/08/10 16:12:03;;;;;;;;;;;24.80;84.30;;;;;;5090379;28;20003;-56
2021/08/10 16:14:52;;;;;;;;;;;24.80;84.20;;;;;;5089535;28;20348;-58
2021/08/10 16:17:41;;;;;;;;;;;24.90;84.60;;;;;;5071685;28;19924;-57
2021/08/10 16:20:29;;;;;;;;;;;25.00;84.20;;;;;;5079859;28;20392;-56
2021/08/10 16:23:18;;;;;;;;;;;25.20;84.40;;;;;;5094954;28;19927;-56
2021/08/10 16:26:08;;;;;;;;;;;25.30;84.00;;;;;;5090519;28;20005;-57
2021/08/10 16:28:57;;;;;;;;;;;25.40;83.10;;;;;;5074082;28;20490;-55
2021/08/10 16:31:45;;;;;;;;;;;25.20;82.10;;;;;;5062541;28;19935;-55
2021/08/10 16:34:35;;;;;;;;;;;25.20;83.30;;;;;;5072324;28;19928;-57
2021/08/10 16:37:24;;;;;;;;;;;25.10;82.90;;;;;;5070827;28;19946;-55
2021/08/10 16:40:13;;;;;;;;;;;25.00;82.90;;;;;;5070274;28;19928;-55
2021/08/10 16:43:26;;;;;;;;;;;25.00;83.10;;;;;;5075638;28;19933;-55